Judenburg, Austria
Current Conditions -  °F | °C
As of 12:50 PM on Friday 31 Oct 2014 (Local Time) from LOXZ Reporting Station
Few Clouds Few Clouds  
Wind Chill: 52°   Ceiling: Unl
Heat Index: 52°   Visibility: 31mi
Dew Point: 41°   Wind: 1mph
Humidity: 67%   Direction: NA
Pressure: 30.33"   Gusts: NA
Location:  47.17°N, 14.66°E
Report Text: LOXZ 311050Z VRB01KT 50KM FEW060CU 11/05 Q1027 RMK FEW
Loading
Personal Weather Stations






























Interactive Weather Map
Tropical Storm Tracking
New forecast layout! Learn more

10-Day Weather Forecast

Advertisements
Track Severe Weather on mobile